createdAt,value
2023-05-13T00:00:38.575Z,14.73
2023-05-13T00:03:07.132Z,14.80
2023-05-13T00:05:35.712Z,17.80
2023-05-13T00:08:07.301Z,16.77
2023-05-13T00:10:35.983Z,15.13
2023-05-13T00:13:04.560Z,15.20
2023-05-13T00:15:33.022Z,17.27
2023-05-13T00:18:01.551Z,15.90
2023-05-13T00:20:30.125Z,19.17
2023-05-13T00:22:58.908Z,15.52
2023-05-13T00:25:28.927Z,17.05
2023-05-13T00:28:00.511Z,16.90
2023-05-13T00:30:29.106Z,15.10
2023-05-13T00:33:00.301Z,15.60
2023-05-13T00:35:28.970Z,17.25
2023-05-13T00:37:57.886Z,15.93
2023-05-13T00:40:26.834Z,16.13
2023-05-13T00:42:56.968Z,18.00
2023-05-13T00:45:25.583Z,16.98
2023-05-13T00:47:54.364Z,16.52
2023-05-13T00:50:23.371Z,15.45
2023-05-13T00:52:52.733Z,15.85
2023-05-13T00:55:21.245Z,16.20
2023-05-13T00:57:49.959Z,16.38
2023-05-13T01:00:20.583Z,17.17
2023-05-13T01:02:52.801Z,16.33
2023-05-13T01:05:24.558Z,15.52
2023-05-13T01:07:57.405Z,16.00
2023-05-13T01:10:29.296Z,16.35
2023-05-13T01:13:00.407Z,16.13
2023-05-13T01:15:30.575Z,16.00
2023-05-13T01:18:02.378Z,15.98
2023-05-13T01:20:32.481Z,16.02
2023-05-13T01:23:04.038Z,15.55
2023-05-13T01:25:32.634Z,16.20
2023-05-13T01:28:01.343Z,15.95
2023-05-13T01:30:30.480Z,16.55
2023-05-13T01:32:59.399Z,15.98
2023-05-13T01:35:31.406Z,14.95
2023-05-13T01:38:00.034Z,16.00
2023-05-13T01:40:32.275Z,15.20
2023-05-13T01:43:01.976Z,16.30
2023-05-13T01:45:30.797Z,15.00
2023-05-13T01:47:59.319Z,16.85
2023-05-13T01:50:27.913Z,17.45
2023-05-13T01:52:57.371Z,16.02
2023-05-13T01:55:25.821Z,16.92
2023-05-13T01:57:55.633Z,18.98
2023-05-13T02:00:24.365Z,16.00
2023-05-13T02:02:52.876Z,15.35
2023-05-13T02:05:21.527Z,16.50
2023-05-13T02:07:49.999Z,16.05
2023-05-13T02:10:18.611Z,16.27
2023-05-13T02:12:47.201Z,17.88
2023-05-13T02:15:17.184Z,15.80
2023-05-13T02:17:45.835Z,16.55
2023-05-13T02:20:14.807Z,16.70
2023-05-13T02:22:43.290Z,17.50
2023-05-13T02:25:11.934Z,17.10
2023-05-13T02:27:40.536Z,17.67
2023-05-13T02:30:09.495Z,16.85
2023-05-13T02:32:42.762Z,16.17
2023-05-13T02:35:11.827Z,15.73
2023-05-13T02:37:40.295Z,18.33
2023-05-13T02:40:09.336Z,16.85
2023-05-13T02:42:37.834Z,16.40
2023-05-13T02:45:06.482Z,15.38
2023-05-13T02:47:35.038Z,16.73
2023-05-13T02:50:06.292Z,16.13
2023-05-13T02:52:35.949Z,16.05
2023-05-13T02:55:04.474Z,17.15
2023-05-13T02:57:32.993Z,15.98
2023-05-13T03:00:01.403Z,17.58
2023-05-13T03:02:30.717Z,16.33
2023-05-13T03:04:59.279Z,16.45
2023-05-13T03:07:29.110Z,16.50
2023-05-13T03:09:57.634Z,19.02
2023-05-13T03:12:26.129Z,16.35
2023-05-13T03:14:54.639Z,16.42
2023-05-13T03:17:23.125Z,14.95
2023-05-13T03:19:51.649Z,15.43
2023-05-13T03:22:20.134Z,16.80
2023-05-13T03:24:50.105Z,15.77
2023-05-13T03:27:18.549Z,15.82
2023-05-13T03:29:47.001Z,18.00
2023-05-13T03:32:15.479Z,15.98
2023-05-13T03:34:43.990Z,17.30
2023-05-13T03:37:12.471Z,16.02
2023-05-13T03:39:41.002Z,15.90
2023-05-13T03:42:10.808Z,16.35
2023-05-13T03:44:39.267Z,15.77
2023-05-13T03:47:08.201Z,16.52
2023-05-13T03:49:36.997Z,15.75
2023-05-13T03:52:07.905Z,16.65
2023-05-13T03:54:36.435Z,17.40
2023-05-13T03:57:04.989Z,15.70
2023-05-13T03:59:34.926Z,16.63
2023-05-13T04:02:03.500Z,15.77
2023-05-13T04:04:32.036Z,19.23
2023-05-13T04:07:00.551Z,16.80
2023-05-13T04:09:29.001Z,18.40
2023-05-13T04:11:57.527Z,18.08
2023-05-13T04:14:26.260Z,17.27
2023-05-13T04:16:56.239Z,15.93
2023-05-13T04:19:24.747Z,16.67
2023-05-13T04:21:53.200Z,17.42
2023-05-13T04:24:21.721Z,16.33
2023-05-13T04:26:50.215Z,16.60
2023-05-13T04:29:18.732Z,16.63
2023-05-13T04:31:47.274Z,16.50
2023-05-13T04:34:17.151Z,18.65
2023-05-13T04:36:46.493Z,16.88
2023-05-13T04:39:14.988Z,16.33
2023-05-13T04:41:43.501Z,16.55
2023-05-13T04:44:12.021Z,19.05
2023-05-13T04:46:40.667Z,17.95
2023-05-13T04:49:09.390Z,17.67
2023-05-13T04:51:39.607Z,17.48
2023-05-13T04:54:08.553Z,17.20
2023-05-13T04:56:37.056Z,17.92
2023-05-13T04:59:05.615Z,16.55
2023-05-13T05:01:34.190Z,17.02
2023-05-13T05:04:02.773Z,15.93
2023-05-13T05:06:31.367Z,17.42
2023-05-13T05:09:01.221Z,16.38
2023-05-13T05:11:29.778Z,16.63
2023-05-13T05:13:58.315Z,18.23
2023-05-13T05:16:26.926Z,18.48
2023-05-13T05:18:55.582Z,17.88
2023-05-13T05:21:24.598Z,18.42
2023-05-13T05:23:55.540Z,18.30
2023-05-13T05:26:25.491Z,21.88
2023-05-13T05:28:53.948Z,17.98
2023-05-13T05:31:22.529Z,17.67
2023-05-13T05:33:51.107Z,17.80
2023-05-13T05:36:19.772Z,17.45
2023-05-13T05:38:48.594Z,17.58
2023-05-13T05:41:17.038Z,21.55
2023-05-13T05:43:46.990Z,17.58
2023-05-13T05:46:15.566Z,19.55
2023-05-13T05:48:44.090Z,18.90
2023-05-13T05:51:12.518Z,20.80
2023-05-13T05:53:42.338Z,19.77
2023-05-13T05:56:10.810Z,17.98
2023-05-13T05:58:39.308Z,18.52
2023-05-13T06:01:09.337Z,16.90
2023-05-13T06:03:37.926Z,17.13
2023-05-13T06:06:06.964Z,17.70
2023-05-13T06:08:35.664Z,19.17
2023-05-13T06:11:04.164Z,17.98
2023-05-13T06:13:32.598Z,18.45
2023-05-13T06:16:01.189Z,17.65
2023-05-13T06:18:31.192Z,16.67
2023-05-13T06:20:59.665Z,18.02
2023-05-13T06:23:28.120Z,20.55
2023-05-13T06:25:58.719Z,16.50
2023-05-13T06:28:27.265Z,16.73
2023-05-13T06:30:55.849Z,16.55
2023-05-13T06:33:24.421Z,17.20
2023-05-13T06:35:54.460Z,17.10
2023-05-13T06:38:22.992Z,17.73
2023-05-13T06:40:51.448Z,15.65
2023-05-13T06:43:19.919Z,14.63
2023-05-13T06:45:48.866Z,16.27
2023-05-13T06:48:17.465Z,16.52
2023-05-13T06:50:46.068Z,15.40
2023-05-13T06:53:19.201Z,13.93
2023-05-13T06:55:47.921Z,14.27
2023-05-13T06:58:16.441Z,13.75
2023-05-13T07:00:46.803Z,12.32
2023-05-13T07:03:15.399Z,14.02
2023-05-13T07:05:43.964Z,13.07
2023-05-13T07:08:17.792Z,13.82
2023-05-13T07:10:47.663Z,13.40
2023-05-13T07:13:17.563Z,13.45
2023-05-13T07:15:47.357Z,13.85
2023-05-13T07:18:15.916Z,11.82
2023-05-13T07:20:44.441Z,12.80
2023-05-13T07:23:12.890Z,10.98
2023-05-13T07:25:41.499Z,16.42
2023-05-13T07:28:11.302Z,10.55
2023-05-13T07:30:42.236Z,11.40
2023-05-13T07:33:10.781Z,10.88
2023-05-13T07:35:39.332Z,11.90
2023-05-13T07:38:10.243Z,10.57
2023-05-13T07:40:38.843Z,11.50
2023-05-13T07:43:07.732Z,11.15
2023-05-13T07:45:39.313Z,10.70
2023-05-13T07:48:10.022Z,10.73
2023-05-13T07:50:39.054Z,11.57
2023-05-13T07:53:07.515Z,11.55
2023-05-13T07:55:36.012Z,11.43
2023-05-13T07:58:04.490Z,9.88
2023-05-13T08:00:32.946Z,9.82
2023-05-13T08:03:03.051Z,12.02
2023-05-13T08:05:31.706Z,9.75
2023-05-13T08:08:00.421Z,9.70
2023-05-13T08:10:29.674Z,10.77
2023-05-13T08:12:58.559Z,10.15
2023-05-13T08:15:28.115Z,10.27
2023-05-13T08:17:56.662Z,8.02
2023-05-13T08:20:30.005Z,9.23
2023-05-13T08:22:58.783Z,7.40
2023-05-13T08:25:27.352Z,9.15
2023-05-13T08:27:59.728Z,6.90
2023-05-13T08:30:28.471Z,6.68
2023-05-13T08:32:57.192Z,7.35
2023-05-13T08:35:27.571Z,6.47
2023-05-13T08:37:56.248Z,7.10
2023-05-13T08:40:24.710Z,7.07
2023-05-13T08:42:54.596Z,7.10
2023-05-13T08:45:23.707Z,8.32
2023-05-13T08:47:53.700Z,6.97
2023-05-13T08:50:22.880Z,7.57
2023-05-13T08:52:54.130Z,6.57
2023-05-13T08:55:24.214Z,6.90
2023-05-13T08:57:53.624Z,6.35
2023-05-13T09:00:22.122Z,7.22
2023-05-13T09:02:51.372Z,9.30
2023-05-13T09:05:20.417Z,9.10
2023-05-13T09:07:48.983Z,7.60
2023-05-13T09:10:19.911Z,5.70
2023-05-13T09:12:49.075Z,6.85
2023-05-13T09:15:19.185Z,5.80
2023-05-13T09:17:50.416Z,7.50
2023-05-13T09:20:19.780Z,10.00
2023-05-13T09:22:48.853Z,5.95
2023-05-13T09:25:18.157Z,5.35
2023-05-13T09:27:48.749Z,5.35
2023-05-13T09:30:17.407Z,9.55
2023-05-13T09:32:46.114Z,6.95
2023-05-13T09:35:19.031Z,5.97
2023-05-13T09:37:48.097Z,5.78
2023-05-13T09:40:17.308Z,6.25
2023-05-13T09:42:46.279Z,5.80
2023-05-13T09:45:16.868Z,7.85
2023-05-13T09:47:45.881Z,5.78
2023-05-13T09:50:14.377Z,5.30
2023-05-13T09:52:42.839Z,6.82
2023-05-13T09:55:11.732Z,5.68
2023-05-13T09:57:41.522Z,4.80
2023-05-13T10:00:24.839Z,5.18
2023-05-13T10:02:59.095Z,7.07
2023-05-13T10:05:27.880Z,4.95
2023-05-13T10:07:57.117Z,7.97
2023-05-13T10:10:25.974Z,6.57
2023-05-13T10:12:54.441Z,5.60
2023-05-13T10:15:23.553Z,4.65
2023-05-13T10:17:52.386Z,5.18
2023-05-13T10:20:23.097Z,4.72
2023-05-13T10:22:52.378Z,5.95
2023-05-13T10:25:21.090Z,5.53
2023-05-13T10:27:50.336Z,5.10
2023-05-13T10:30:19.810Z,8.43
2023-05-13T10:32:48.518Z,5.28
2023-05-13T10:35:17.885Z,4.60
2023-05-13T10:37:56.867Z,4.90
2023-05-13T10:40:34.822Z,7.85
2023-05-13T10:43:12.329Z,5.70
2023-05-13T10:45:40.807Z,5.00
2023-05-13T10:48:09.516Z,5.25
2023-05-13T10:50:39.358Z,4.90
2023-05-13T10:53:19.693Z,5.45
2023-05-13T10:55:48.221Z,5.30
2023-05-13T10:58:17.008Z,5.75
2023-05-13T11:00:46.981Z,4.00
2023-05-13T11:03:16.634Z,7.13
2023-05-13T11:08:39.980Z,4.63
2023-05-13T11:11:29.634Z,7.20
2023-05-13T11:14:04.499Z,8.45
2023-05-13T11:16:33.096Z,5.93
2023-05-13T11:19:03.882Z,6.20
2023-05-13T11:21:33.295Z,7.22
2023-05-13T11:24:05.649Z,5.47
2023-05-13T11:26:46.103Z,5.13
2023-05-13T11:29:14.740Z,5.90
2023-05-13T11:31:47.271Z,4.25
2023-05-13T11:34:16.668Z,5.45
2023-05-13T11:36:46.996Z,4.88
2023-05-13T11:39:17.944Z,6.70
2023-05-13T11:41:47.662Z,6.00
2023-05-13T11:44:16.836Z,4.95
2023-05-13T11:46:51.949Z,4.70
2023-05-13T11:49:31.986Z,5.28
2023-05-13T11:52:00.691Z,4.55
2023-05-13T11:54:30.698Z,3.72
2023-05-13T11:56:59.233Z,6.40
2023-05-13T11:59:33.342Z,4.13
2023-05-13T12:02:07.296Z,4.18
2023-05-13T12:04:35.784Z,6.07
2023-05-13T12:07:04.244Z,6.85
2023-05-13T12:09:34.072Z,5.82
2023-05-13T12:12:03.654Z,7.55
2023-05-13T12:14:33.315Z,4.43
2023-05-13T12:17:01.945Z,4.10
2023-05-13T12:19:30.852Z,6.65
2023-05-13T12:22:01.485Z,7.10
2023-05-13T12:24:34.998Z,4.65
2023-05-13T12:27:11.306Z,4.80
2023-05-13T12:29:43.674Z,5.43
2023-05-13T12:32:12.944Z,4.72
2023-05-13T12:34:41.428Z,4.05
2023-05-13T12:37:13.448Z,4.22
2023-05-13T12:39:42.786Z,5.18
2023-05-13T12:42:19.440Z,7.60
2023-05-13T12:44:47.915Z,6.10
2023-05-13T12:47:20.143Z,6.65
2023-05-13T12:49:55.179Z,5.97
2023-05-13T12:52:23.804Z,5.30
2023-05-13T12:54:52.400Z,6.00
2023-05-13T12:57:22.386Z,6.38
2023-05-13T12:59:50.858Z,5.75
2023-05-13T13:02:19.355Z,4.35
2023-05-13T13:04:47.844Z,6.63
2023-05-13T13:07:16.360Z,4.57
2023-05-13T13:09:44.863Z,6.95
2023-05-13T13:12:13.461Z,5.47
2023-05-13T13:14:43.384Z,6.63
2023-05-13T13:17:11.825Z,4.28
2023-05-13T13:19:40.255Z,5.18
2023-05-13T13:22:08.721Z,6.40
2023-05-13T13:24:37.162Z,5.95
2023-05-13T13:27:05.739Z,4.32
2023-05-13T13:29:34.319Z,6.50
2023-05-13T13:32:04.191Z,5.20
2023-05-13T13:34:32.685Z,5.97
2023-05-13T13:37:01.194Z,4.20
2023-05-13T13:39:29.640Z,6.15
2023-05-13T13:41:58.086Z,4.47
2023-05-13T13:44:28.499Z,4.25
2023-05-13T13:46:57.085Z,5.95
2023-05-13T13:49:27.228Z,6.35
2023-05-13T13:51:55.780Z,7.53
2023-05-13T13:54:24.236Z,5.68
2023-05-13T13:56:52.677Z,4.88
2023-05-13T13:59:21.082Z,4.30
2023-05-13T14:01:49.650Z,5.55
2023-05-13T14:04:20.252Z,8.00
2023-05-13T14:06:50.226Z,7.07
2023-05-13T14:09:18.790Z,5.72
2023-05-13T14:11:47.388Z,6.07
2023-05-13T14:14:15.838Z,4.50
2023-05-13T14:16:44.268Z,4.72
2023-05-13T14:19:13.286Z,5.53
2023-05-13T14:21:41.883Z,4.50
2023-05-13T14:24:12.088Z,4.65
2023-05-13T14:26:40.798Z,3.90
2023-05-13T14:29:09.336Z,5.22
2023-05-13T14:31:38.029Z,5.88
2023-05-13T14:34:07.972Z,7.70
2023-05-13T14:36:36.644Z,4.32
2023-05-13T14:39:05.590Z,6.63
2023-05-13T14:41:35.404Z,7.05
2023-05-13T14:44:03.801Z,4.93
2023-05-13T14:46:34.581Z,5.88
2023-05-13T14:49:03.091Z,5.53
2023-05-13T14:51:31.531Z,5.85
2023-05-13T14:54:00.200Z,5.65
2023-05-13T14:56:28.716Z,7.30
2023-05-13T14:58:58.639Z,5.18
2023-05-13T15:01:27.120Z,5.25
2023-05-13T15:03:58.126Z,5.40
2023-05-13T15:06:26.897Z,5.50
2023-05-13T15:08:55.710Z,4.85
2023-05-13T15:11:24.902Z,5.57
2023-05-13T15:13:53.416Z,8.45
2023-05-13T15:16:23.509Z,7.75
2023-05-13T15:18:52.003Z,7.85
2023-05-13T15:21:20.516Z,8.38
2023-05-13T15:23:49.145Z,7.03
2023-05-13T15:26:17.699Z,4.40
2023-05-13T15:28:46.129Z,7.57
2023-05-13T15:31:14.663Z,5.90
2023-05-13T15:33:45.314Z,4.43
2023-05-13T15:36:14.050Z,4.63
2023-05-13T15:38:42.494Z,7.20
2023-05-13T15:41:11.019Z,5.22
2023-05-13T15:43:39.599Z,4.75
2023-05-13T15:46:08.325Z,5.80
2023-05-13T15:48:37.697Z,3.92
2023-05-13T15:51:07.731Z,3.92
2023-05-13T15:53:36.203Z,3.65
2023-05-13T15:56:04.784Z,3.83
2023-05-13T15:58:33.238Z,3.30
2023-05-13T16:01:01.812Z,4.03
2023-05-13T16:03:30.348Z,4.35
2023-05-13T16:05:58.854Z,4.82
2023-05-13T16:08:28.783Z,4.47
2023-05-13T16:10:57.457Z,5.45
2023-05-13T16:13:25.958Z,4.68
2023-05-13T16:15:54.933Z,4.47
2023-05-13T16:20:58.592Z,4.70
2023-05-13T16:23:27.104Z,3.53
2023-05-13T16:25:55.534Z,4.13
2023-05-13T16:28:24.209Z,3.63
2023-05-13T16:30:54.761Z,3.70
2023-05-13T16:33:25.121Z,3.58
2023-05-13T16:35:53.806Z,3.60
2023-05-13T16:38:25.553Z,3.80
2023-05-13T16:40:54.160Z,3.70
2023-05-13T16:43:22.686Z,4.43
2023-05-13T16:45:51.408Z,4.35
2023-05-13T16:48:20.200Z,3.53
2023-05-13T16:50:49.536Z,3.50
2023-05-13T16:53:18.124Z,4.10
2023-05-13T16:55:49.644Z,3.80
2023-05-13T16:58:18.224Z,5.32
2023-05-13T17:00:46.755Z,3.45
2023-05-13T17:03:15.529Z,3.50
2023-05-13T17:05:44.266Z,3.50
2023-05-13T17:08:12.790Z,3.35
2023-05-13T17:10:41.322Z,3.80
2023-05-13T17:13:11.168Z,3.88
2023-05-13T17:15:39.585Z,3.95
2023-05-13T17:18:08.479Z,3.67
2023-05-13T17:20:37.005Z,3.70
2023-05-13T17:23:05.612Z,5.07
2023-05-13T17:25:34.112Z,5.25
2023-05-13T17:28:02.561Z,4.18
2023-05-13T17:30:32.365Z,4.40
2023-05-13T17:33:00.785Z,7.55
2023-05-13T17:35:29.229Z,11.18
2023-05-13T17:37:57.707Z,8.68
2023-05-13T17:40:28.692Z,6.85
2023-05-13T17:42:57.361Z,5.55
2023-05-13T17:45:25.875Z,7.68
2023-05-13T17:47:55.850Z,5.70
2023-05-13T17:50:24.557Z,7.22
2023-05-13T17:52:53.163Z,6.65
2023-05-13T17:55:21.635Z,8.20
2023-05-13T17:57:50.058Z,7.40
2023-05-13T18:00:18.717Z,7.25
2023-05-13T18:02:47.189Z,6.13
2023-05-13T18:05:17.232Z,8.18
2023-05-13T18:07:45.816Z,7.13
2023-05-13T18:10:14.354Z,7.45
2023-05-13T18:12:42.834Z,6.97
2023-05-13T18:15:11.471Z,8.65
2023-05-13T18:17:40.075Z,7.55
2023-05-13T18:20:09.164Z,8.23
2023-05-13T18:22:39.108Z,6.55
2023-05-13T18:25:08.176Z,7.80
2023-05-13T18:27:36.829Z,7.07
2023-05-13T18:30:08.380Z,8.15
2023-05-13T18:32:37.870Z,7.85
2023-05-13T18:35:07.229Z,6.65
2023-05-13T18:37:35.775Z,8.85
2023-05-13T18:40:06.076Z,6.28
2023-05-13T18:42:34.561Z,5.43
2023-05-13T18:45:02.970Z,5.80
2023-05-13T18:47:31.590Z,7.43
2023-05-13T18:50:00.131Z,7.10
2023-05-13T18:52:28.594Z,7.43
2023-05-13T18:54:57.019Z,7.32
2023-05-13T18:57:27.065Z,6.93
2023-05-13T18:59:56.928Z,7.13
2023-05-13T19:02:25.631Z,7.18
2023-05-13T19:04:56.695Z,6.65
2023-05-13T19:07:25.081Z,6.38
2023-05-13T19:09:53.534Z,18.05
2023-05-13T19:12:21.984Z,14.98
2023-05-13T19:14:51.809Z,11.60
2023-05-13T19:17:20.573Z,8.43
2023-05-13T19:19:49.191Z,7.30
2023-05-13T19:22:17.708Z,8.30
2023-05-13T19:24:46.320Z,7.18
2023-05-13T19:27:14.911Z,7.20
2023-05-13T19:29:43.371Z,7.40
2023-05-13T19:32:13.167Z,8.57
2023-05-13T19:34:41.627Z,8.60
2023-05-13T19:37:10.156Z,7.38
2023-05-13T19:39:38.611Z,7.13
2023-05-13T19:42:07.293Z,9.07
2023-05-13T19:44:35.866Z,8.75
2023-05-13T19:47:05.797Z,8.13
2023-05-13T19:49:35.633Z,7.82
2023-05-13T19:52:04.947Z,7.53
2023-05-13T19:54:33.486Z,7.63
2023-05-13T19:57:02.131Z,8.10
2023-05-13T19:59:30.680Z,8.52
2023-05-13T20:01:59.339Z,10.45
2023-05-13T20:04:27.866Z,9.10
2023-05-13T20:06:58.147Z,9.23
2023-05-13T20:09:26.880Z,8.50
2023-05-13T20:11:55.452Z,8.40
2023-05-13T20:14:25.129Z,8.95
2023-05-13T20:16:53.771Z,8.65
2023-05-13T20:19:22.615Z,10.82
2023-05-13T20:21:51.267Z,8.65
2023-05-13T20:24:21.271Z,11.48
2023-05-13T20:26:49.951Z,7.53
2023-05-13T20:29:18.518Z,8.85
2023-05-13T20:31:47.092Z,9.00
2023-05-13T20:34:16.092Z,11.65
2023-05-13T20:36:44.632Z,9.07
2023-05-13T20:39:13.384Z,8.88
2023-05-13T20:41:43.205Z,9.68
2023-05-13T20:44:12.711Z,9.18
2023-05-13T20:46:41.557Z,9.13
2023-05-13T20:49:10.090Z,10.45
2023-05-13T20:51:38.636Z,9.30
2023-05-13T20:54:07.225Z,9.65
2023-05-13T20:56:35.917Z,11.10
2023-05-13T20:59:05.761Z,8.82
2023-05-13T21:01:34.981Z,11.00
2023-05-13T21:04:06.123Z,11.57
2023-05-13T21:06:35.651Z,8.60
2023-05-13T21:09:04.204Z,9.95
2023-05-13T21:11:32.735Z,18.27
2023-05-13T21:14:01.245Z,16.30
2023-05-13T21:16:31.310Z,12.20
2023-05-13T21:18:59.987Z,10.48
2023-05-13T21:21:28.694Z,11.75
2023-05-13T21:23:57.416Z,14.00
2023-05-13T21:26:26.502Z,11.93
2023-05-13T21:28:54.956Z,13.80
2023-05-13T21:31:23.673Z,10.98
2023-05-13T21:33:54.004Z,10.70
2023-05-13T21:36:23.097Z,11.70
2023-05-13T21:38:51.969Z,16.00
2023-05-13T21:41:22.078Z,15.75
2023-05-13T21:43:50.965Z,16.70
2023-05-13T21:46:19.795Z,14.13
2023-05-13T21:48:48.415Z,12.10
2023-05-13T21:51:18.384Z,11.57
2023-05-13T21:53:46.879Z,11.40
2023-05-13T21:56:15.497Z,12.75
2023-05-13T21:58:44.682Z,12.38
2023-05-13T22:01:13.452Z,9.90
2023-05-13T22:03:42.714Z,10.10
2023-05-13T22:06:12.291Z,9.70
2023-05-13T22:08:42.143Z,9.20
2023-05-13T22:11:11.422Z,10.20
2023-05-13T22:13:39.980Z,10.20
2023-05-13T22:16:08.629Z,10.23
2023-05-13T22:18:37.376Z,12.45
2023-05-13T22:21:06.047Z,11.02
2023-05-13T22:23:34.490Z,10.75
2023-05-13T22:26:05.112Z,12.88
2023-05-13T22:28:33.535Z,13.88
2023-05-13T22:31:02.037Z,9.90
2023-05-13T22:33:30.437Z,10.90
2023-05-13T22:35:58.898Z,11.75
2023-05-13T22:38:27.389Z,9.48
2023-05-13T22:40:56.321Z,9.73
2023-05-13T22:43:26.162Z,11.13
2023-05-13T22:45:57.463Z,10.65
2023-05-13T22:48:26.803Z,10.52
2023-05-13T22:50:57.069Z,10.13
2023-05-13T22:53:25.650Z,10.25
2023-05-13T22:55:54.089Z,11.27
2023-05-13T22:58:22.729Z,10.88
2023-05-13T23:00:52.556Z,10.70
2023-05-13T23:03:21.003Z,12.43
2023-05-13T23:05:49.459Z,10.48
2023-05-13T23:08:17.929Z,11.35
2023-05-13T23:10:46.602Z,10.18
2023-05-13T23:13:15.055Z,12.43
2023-05-13T23:15:43.568Z,11.93
2023-05-13T23:18:13.479Z,12.50
2023-05-13T23:20:42.051Z,11.82
2023-05-13T23:23:10.458Z,11.27
2023-05-13T23:25:38.909Z,11.55
2023-05-13T23:28:07.328Z,11.65
2023-05-13T23:30:37.600Z,11.52
2023-05-13T23:33:06.136Z,12.18
2023-05-13T23:35:36.032Z,12.32
2023-05-13T23:38:04.502Z,12.75
2023-05-13T23:40:32.961Z,11.13
2023-05-13T23:43:01.386Z,11.57
2023-05-13T23:45:29.849Z,12.38
2023-05-13T23:47:58.327Z,13.27
2023-05-13T23:50:26.823Z,12.25
2023-05-13T23:52:56.645Z,17.25
2023-05-13T23:55:25.102Z,13.98
2023-05-13T23:57:53.649Z,11.43
